createdAt,value
2017-12-22T00:02:25.412Z,43.83
2017-12-22T00:04:53.098Z,41.53
2017-12-22T00:07:20.763Z,40.97
2017-12-22T00:09:48.370Z,47.67
2017-12-22T00:12:16.026Z,40.33
2017-12-22T00:14:43.631Z,42.13
2017-12-22T00:17:11.239Z,41.10
2017-12-22T00:19:38.951Z,43.90
2017-12-22T00:22:06.618Z,42.03
2017-12-22T00:24:34.280Z,51.20
2017-12-22T00:27:02.462Z,50.80
2017-12-22T00:29:30.066Z,60.17
2017-12-22T00:31:57.738Z,44.07
2017-12-22T00:34:25.407Z,42.93
2017-12-22T00:36:53.011Z,37.00
2017-12-22T00:39:20.615Z,47.63
2017-12-22T00:41:48.279Z,40.03
2017-12-22T00:44:15.939Z,44.80
2017-12-22T00:46:43.619Z,43.73
2017-12-22T00:49:11.303Z,46.30
2017-12-22T00:51:38.910Z,42.07
2017-12-22T00:54:06.515Z,35.60
2017-12-22T00:56:34.244Z,46.40
2017-12-22T00:59:01.925Z,39.57
2017-12-22T01:01:29.536Z,36.07
2017-12-22T01:03:57.254Z,43.00
2017-12-22T01:06:24.901Z,48.63
2017-12-22T01:08:52.506Z,40.23
2017-12-22T01:11:20.223Z,40.63
2017-12-22T01:13:47.827Z,40.07
2017-12-22T01:16:20.991Z,40.13
2017-12-22T01:18:54.195Z,41.23
2017-12-22T01:21:21.911Z,32.67
2017-12-22T01:23:49.514Z,43.20
2017-12-22T01:26:17.178Z,46.20
2017-12-22T01:28:44.899Z,44.50
2017-12-22T01:31:12.566Z,40.27
2017-12-22T01:33:40.162Z,45.47
2017-12-22T01:36:07.899Z,44.47
2017-12-22T01:38:35.502Z,44.30
2017-12-22T01:41:03.103Z,37.60
2017-12-22T01:43:30.771Z,40.83
2017-12-22T01:45:58.370Z,34.50
2017-12-22T01:48:26.039Z,32.30
2017-12-22T01:50:53.706Z,36.37
2017-12-22T01:53:21.315Z,38.93
2017-12-22T01:55:48.980Z,33.40
2017-12-22T01:58:16.659Z,39.60
2017-12-22T02:00:44.262Z,32.43
2017-12-22T02:03:11.874Z,34.07
2017-12-22T02:05:39.530Z,40.50
2017-12-22T02:08:07.134Z,93.90
2017-12-22T02:10:34.799Z,115.27
2017-12-22T02:13:02.486Z,67.67
2017-12-22T02:15:30.096Z,48.47
2017-12-22T02:17:57.766Z,49.27
2017-12-22T02:20:25.487Z,56.40
2017-12-22T02:22:53.158Z,40.83
2017-12-22T02:25:20.823Z,46.63
2017-12-22T02:27:48.527Z,45.07
2017-12-22T02:30:16.130Z,40.27
2017-12-22T02:32:43.808Z,41.50
2017-12-22T02:35:11.526Z,42.57
2017-12-22T02:37:39.132Z,41.87
2017-12-22T02:40:06.799Z,47.10
2017-12-22T02:42:34.463Z,50.77
2017-12-22T02:45:02.068Z,42.33
2017-12-22T02:47:29.679Z,43.67
2017-12-22T02:49:57.339Z,44.10
2017-12-22T02:52:24.947Z,41.77
2017-12-22T02:54:52.564Z,41.30
2017-12-22T02:57:20.284Z,46.47
2017-12-22T02:59:47.894Z,45.57
2017-12-22T03:02:15.515Z,45.43
2017-12-22T03:04:43.182Z,42.90
2017-12-22T03:07:10.846Z,48.90
2017-12-22T03:09:38.507Z,40.93
2017-12-22T03:12:06.163Z,46.83
2017-12-22T03:14:33.831Z,47.13
2017-12-22T03:17:01.436Z,40.10
2017-12-22T03:19:29.103Z,40.77
2017-12-22T03:21:56.714Z,42.77
2017-12-22T03:24:24.375Z,53.63
2017-12-22T03:26:52.040Z,57.67
2017-12-22T03:29:19.653Z,61.23
2017-12-22T03:31:47.311Z,47.73
2017-12-22T03:34:14.966Z,47.57
2017-12-22T03:36:42.628Z,44.23
2017-12-22T03:39:10.231Z,45.60
2017-12-22T03:41:37.888Z,38.43
2017-12-22T03:44:05.553Z,46.43
2017-12-22T03:46:33.215Z,48.30
2017-12-22T03:49:00.870Z,39.53
2017-12-22T03:51:28.475Z,38.17
2017-12-22T03:53:56.078Z,39.93
2017-12-22T03:56:23.763Z,42.50
2017-12-22T03:58:51.367Z,48.30
2017-12-22T04:01:18.977Z,35.23
2017-12-22T04:03:46.630Z,43.77
2017-12-22T04:06:14.238Z,37.67
2017-12-22T04:08:41.899Z,41.00
2017-12-22T04:11:09.578Z,37.63
2017-12-22T04:13:37.247Z,43.13
2017-12-22T04:16:04.850Z,35.70
2017-12-22T04:18:32.567Z,38.70
2017-12-22T04:21:00.275Z,43.90
2017-12-22T04:23:27.887Z,50.77
2017-12-22T04:25:55.603Z,46.23
2017-12-22T04:28:23.210Z,39.77
2017-12-22T04:30:50.871Z,36.80
2017-12-22T04:33:18.531Z,46.63
2017-12-22T04:35:46.147Z,54.40
2017-12-22T04:38:13.807Z,55.10
2017-12-22T04:40:41.521Z,55.53
2017-12-22T04:43:09.189Z,48.27
2017-12-22T04:45:36.797Z,56.57
2017-12-22T04:48:04.543Z,52.67
2017-12-22T04:50:32.147Z,65.67
2017-12-22T04:52:59.751Z,52.00
2017-12-22T04:55:27.446Z,49.20
2017-12-22T04:57:55.112Z,50.17
2017-12-22T05:00:22.718Z,49.20
2017-12-22T05:02:50.439Z,58.83
2017-12-22T05:05:18.159Z,50.30
2017-12-22T05:07:45.780Z,58.90
2017-12-22T05:10:13.438Z,48.00
2017-12-22T05:12:41.043Z,45.83
2017-12-22T05:15:08.761Z,37.97
2017-12-22T05:17:36.420Z,34.70
2017-12-22T05:20:04.030Z,42.30
2017-12-22T05:22:31.698Z,40.13
2017-12-22T05:24:59.351Z,51.77
2017-12-22T05:27:26.956Z,59.70
2017-12-22T05:29:54.619Z,55.37
2017-12-22T05:32:22.346Z,102.07
2017-12-22T05:34:49.950Z,86.77
2017-12-22T05:37:17.562Z,61.83
2017-12-22T05:39:45.226Z,45.03
2017-12-22T05:42:12.887Z,65.13
2017-12-22T05:44:40.548Z,48.00
2017-12-22T05:47:08.220Z,182.40
2017-12-22T05:49:35.827Z,70.97
2017-12-22T05:52:03.490Z,43.53
2017-12-22T05:54:31.147Z,40.10
2017-12-22T05:56:58.811Z,42.23
2017-12-22T05:59:26.475Z,42.27
2017-12-22T06:01:54.171Z,42.90
2017-12-22T06:04:21.831Z,36.03
2017-12-22T06:06:49.437Z,42.97
2017-12-22T06:09:17.118Z,34.33
2017-12-22T06:11:44.726Z,30.80
2017-12-22T06:14:12.387Z,35.33
2017-12-22T06:16:40.103Z,53.27
2017-12-22T06:19:07.763Z,41.37
2017-12-22T06:21:35.423Z,50.33
2017-12-22T06:24:03.182Z,117.73
2017-12-22T06:26:30.782Z,45.10
2017-12-22T06:28:58.384Z,35.43
2017-12-22T06:31:26.042Z,51.77
2017-12-22T06:33:53.654Z,34.40
2017-12-22T06:36:21.259Z,42.67
2017-12-22T06:38:48.915Z,32.57
2017-12-22T06:41:16.585Z,33.90
2017-12-22T06:43:44.194Z,31.37
2017-12-22T06:46:11.846Z,48.13
2017-12-22T06:48:39.515Z,44.57
2017-12-22T06:51:07.179Z,44.93
2017-12-22T06:53:34.854Z,50.00
2017-12-22T06:56:02.519Z,53.73
2017-12-22T06:58:30.178Z,42.50
2017-12-22T07:00:57.899Z,37.93
2017-12-22T07:03:25.563Z,42.97
2017-12-22T07:05:53.166Z,41.57
2017-12-22T07:08:20.846Z,34.70
2017-12-22T07:10:48.449Z,52.17
2017-12-22T07:13:16.054Z,40.00
2017-12-22T07:15:43.710Z,28.67
2017-12-22T07:18:11.318Z,39.27
2017-12-22T07:20:38.979Z,33.33
2017-12-22T07:23:06.699Z,31.67
2017-12-22T07:25:34.307Z,35.17
2017-12-22T07:28:01.918Z,29.03
2017-12-22T07:30:29.575Z,35.77
2017-12-22T07:32:57.239Z,35.87
2017-12-22T07:35:24.903Z,34.10
2017-12-22T07:37:52.570Z,51.30
2017-12-22T07:40:20.174Z,40.60
2017-12-22T07:42:47.843Z,35.10
2017-12-22T07:45:15.563Z,35.73
2017-12-22T07:47:43.230Z,26.97
2017-12-22T07:50:10.847Z,32.63
2017-12-22T07:52:38.503Z,32.53
2017-12-22T07:55:06.107Z,34.83
2017-12-22T07:57:33.703Z,42.10
2017-12-22T08:00:01.450Z,35.67
2017-12-22T08:02:29.050Z,40.93
2017-12-22T08:04:56.707Z,37.43
2017-12-22T08:07:24.360Z,33.70
2017-12-22T08:09:51.970Z,42.20
2017-12-22T08:12:19.564Z,31.53
2017-12-22T08:14:47.216Z,28.17
2017-12-22T08:17:14.813Z,29.07
2017-12-22T08:19:42.414Z,35.50
2017-12-22T08:22:10.123Z,37.20
2017-12-22T08:24:37.783Z,50.33
2017-12-22T08:27:05.386Z,31.03
2017-12-22T08:29:33.083Z,30.67
2017-12-22T08:32:00.710Z,25.10
2017-12-22T08:34:28.310Z,32.43
2017-12-22T08:36:56.040Z,30.83
2017-12-22T08:39:23.651Z,42.77
2017-12-22T08:41:51.311Z,65.60
2017-12-22T08:44:18.955Z,35.50
2017-12-22T08:46:46.585Z,43.97
2017-12-22T08:49:14.279Z,52.67
2017-12-22T08:51:41.933Z,42.43
2017-12-22T08:54:09.579Z,36.57
2017-12-22T08:56:37.191Z,48.10
2017-12-22T08:59:04.847Z,68.40
2017-12-22T09:01:32.507Z,85.37
2017-12-22T09:04:00.114Z,104.80
2017-12-22T09:06:27.767Z,77.00
2017-12-22T09:08:55.359Z,52.97
2017-12-22T09:11:22.966Z,54.40
2017-12-22T09:13:50.618Z,53.17
2017-12-22T09:16:18.223Z,88.27
2017-12-22T09:18:45.887Z,54.00
2017-12-22T09:21:13.543Z,78.80
2017-12-22T09:23:41.147Z,48.10
2017-12-22T09:26:08.751Z,82.77
2017-12-22T09:28:36.407Z,75.53
2017-12-22T09:31:04.015Z,84.13
2017-12-22T09:33:31.683Z,51.73
2017-12-22T09:35:59.336Z,50.90
2017-12-22T09:38:27.003Z,49.50
2017-12-22T09:40:54.607Z,41.40
2017-12-22T09:43:22.367Z,45.70
2017-12-22T09:45:50.023Z,43.13
2017-12-22T09:48:17.667Z,46.30
2017-12-22T09:50:45.379Z,43.53
2017-12-22T09:53:12.979Z,46.97
2017-12-22T09:55:40.641Z,57.13
2017-12-22T09:58:08.299Z,63.83
2017-12-22T10:00:35.999Z,59.47
2017-12-22T10:03:03.603Z,53.53
2017-12-22T10:05:31.309Z,53.07
2017-12-22T10:07:58.975Z,45.23
2017-12-22T10:10:26.635Z,51.90
2017-12-22T10:12:54.295Z,53.97
2017-12-22T10:15:21.911Z,43.20
2017-12-22T10:17:49.593Z,84.83
2017-12-22T10:20:17.294Z,66.57
2017-12-22T10:22:44.899Z,62.33
2017-12-22T10:25:12.562Z,63.83
2017-12-22T10:27:40.242Z,57.10
2017-12-22T10:30:07.851Z,48.83
2017-12-22T10:32:35.451Z,46.47
2017-12-22T10:35:03.117Z,41.33
2017-12-22T10:37:30.727Z,45.57
2017-12-22T10:39:58.327Z,38.23
2017-12-22T10:42:26.039Z,43.27
2017-12-22T10:44:53.703Z,38.00
2017-12-22T10:47:21.371Z,37.90
2017-12-22T10:49:49.039Z,47.43
2017-12-22T10:52:16.704Z,51.00
2017-12-22T10:54:44.374Z,47.50
2017-12-22T10:57:11.987Z,40.67
2017-12-22T10:59:39.624Z,62.77
2017-12-22T11:02:07.327Z,45.33
2017-12-22T11:04:34.942Z,55.73
2017-12-22T11:07:02.551Z,35.90
2017-12-22T11:09:30.167Z,29.40
2017-12-22T11:11:57.834Z,64.17
2017-12-22T11:14:25.562Z,27.83
2017-12-22T11:16:53.232Z,30.97
2017-12-22T11:19:20.903Z,65.70
2017-12-22T11:21:48.586Z,27.30
2017-12-22T11:24:16.199Z,32.23
2017-12-22T11:26:43.867Z,33.77
2017-12-22T11:29:11.480Z,38.13
2017-12-22T11:31:39.160Z,37.47
2017-12-22T11:34:06.785Z,40.40
2017-12-22T11:36:34.447Z,35.53
2017-12-22T11:39:02.114Z,32.83
2017-12-22T11:41:29.739Z,47.77
2017-12-22T11:43:58.319Z,39.43
2017-12-22T11:46:25.965Z,32.47
2017-12-22T11:48:53.597Z,33.43
2017-12-22T11:51:21.258Z,38.13
2017-12-22T11:53:48.940Z,37.80
2017-12-22T11:56:16.554Z,37.30
2017-12-22T11:58:44.167Z,47.20
2017-12-22T12:01:11.783Z,51.63
2017-12-22T12:03:39.510Z,37.10
2017-12-22T12:06:07.175Z,91.03
2017-12-22T12:08:34.839Z,35.07
2017-12-22T12:11:02.513Z,23.03
2017-12-22T12:13:30.175Z,26.70
2017-12-22T12:15:57.860Z,30.10
2017-12-22T12:18:25.523Z,28.57
2017-12-22T12:20:53.127Z,47.20
2017-12-22T12:24:41.795Z,23.70
2017-12-22T12:27:09.451Z,65.30
2017-12-22T12:29:37.174Z,60.67
2017-12-22T12:32:04.783Z,59.37
2017-12-22T12:39:41.233Z,46.10
2017-12-22T12:42:08.899Z,44.20
2017-12-22T12:44:36.565Z,43.87
2017-12-22T12:47:04.175Z,71.70
2017-12-22T12:49:31.775Z,40.93
2017-12-22T12:51:59.447Z,34.63
2017-12-22T12:54:27.055Z,40.00
2017-12-22T12:56:54.655Z,37.30
2017-12-22T12:59:22.324Z,44.30
2017-12-22T13:01:49.927Z,36.37
2017-12-22T13:04:17.677Z,29.03
2017-12-22T13:06:45.287Z,33.03
2017-12-22T13:09:12.886Z,33.47
2017-12-22T13:11:40.593Z,36.50
2017-12-22T13:14:08.209Z,42.13
2017-12-22T13:16:35.927Z,29.60
2017-12-22T13:19:03.535Z,71.10
2017-12-22T13:21:31.176Z,74.00
2017-12-22T13:23:58.843Z,60.17
2017-12-22T13:26:26.504Z,41.57
2017-12-22T13:28:54.187Z,37.40
2017-12-22T13:31:21.787Z,40.70
2017-12-22T13:33:49.391Z,42.70
2017-12-22T13:36:17.010Z,52.23
2017-12-22T13:38:44.614Z,53.23
2017-12-22T13:41:12.332Z,54.47
2017-12-22T13:43:39.991Z,59.73
2017-12-22T13:46:07.599Z,56.77
2017-12-22T13:48:35.211Z,46.70
2017-12-22T13:51:02.827Z,54.53
2017-12-22T13:53:30.495Z,57.63
2017-12-22T13:55:58.099Z,50.93
2017-12-22T13:58:25.715Z,55.10
2017-12-22T14:00:53.326Z,78.13
2017-12-22T14:03:20.932Z,69.57
2017-12-22T14:05:48.643Z,61.60
2017-12-22T14:08:16.312Z,69.37
2017-12-22T14:10:43.923Z,67.80
2017-12-22T14:13:11.603Z,73.30
2017-12-22T14:15:39.276Z,50.27
2017-12-22T14:18:06.992Z,73.93
2017-12-22T14:20:34.676Z,89.13
2017-12-22T14:23:02.310Z,79.10
2017-12-22T14:25:29.922Z,80.53
2017-12-22T14:27:57.584Z,93.73
2017-12-22T14:30:25.239Z,67.17
2017-12-22T14:32:52.844Z,74.87
2017-12-22T14:35:20.447Z,68.77
2017-12-22T14:37:48.114Z,83.73
2017-12-22T14:40:15.791Z,75.13
2017-12-22T14:42:43.508Z,67.10
2017-12-22T14:45:11.107Z,68.90
2017-12-22T14:47:38.715Z,57.33
2017-12-22T14:50:06.323Z,69.27
2017-12-22T14:52:33.918Z,69.50
2017-12-22T14:55:01.583Z,87.57
2017-12-22T14:57:29.182Z,87.10
2017-12-22T14:59:56.783Z,86.57
2017-12-22T15:02:24.394Z,92.60
2017-12-22T15:04:52.103Z,190.70
2017-12-22T15:07:19.770Z,160.13
2017-12-22T15:09:47.379Z,140.80
2017-12-22T15:12:15.043Z,121.17
2017-12-22T15:14:42.655Z,155.60
2017-12-22T15:17:10.268Z,137.97
2017-12-22T15:19:37.961Z,144.63
2017-12-22T15:22:05.640Z,124.40
2017-12-22T15:24:33.250Z,122.00
2017-12-22T15:27:00.862Z,126.97
2017-12-22T15:29:28.531Z,206.80
2017-12-22T15:31:56.242Z,146.20
2017-12-22T15:34:23.846Z,178.07
2017-12-22T15:36:51.466Z,194.30
2017-12-22T15:39:19.155Z,183.73
2017-12-22T15:41:46.763Z,192.77
2017-12-22T15:44:14.418Z,183.40
2017-12-22T15:46:42.029Z,204.37
2017-12-22T15:49:09.695Z,217.47
2017-12-22T15:51:37.375Z,219.53
2017-12-22T15:54:05.034Z,216.67
2017-12-22T15:56:32.710Z,243.23
2017-12-22T15:59:00.380Z,257.77
2017-12-22T16:01:28.002Z,313.27
2017-12-22T16:03:55.615Z,290.10
2017-12-22T16:06:23.279Z,258.33
2017-12-22T16:08:50.942Z,220.93
2017-12-22T16:11:18.632Z,222.00
2017-12-22T16:13:46.246Z,216.80
2017-12-22T16:16:13.931Z,193.67
2017-12-22T16:18:41.659Z,204.23
2017-12-22T16:21:09.401Z,162.43
2017-12-22T16:23:37.028Z,139.90
2017-12-22T16:26:04.699Z,141.47
2017-12-22T16:28:32.317Z,141.90
2017-12-22T16:30:59.926Z,154.20
2017-12-22T16:33:27.648Z,155.80
2017-12-22T16:35:55.260Z,130.43
2017-12-22T16:38:22.877Z,143.03
2017-12-22T16:40:50.560Z,148.30
2017-12-22T16:43:18.166Z,150.87
2017-12-22T16:45:45.836Z,158.93
2017-12-22T16:48:13.508Z,238.00
2017-12-22T16:50:41.115Z,251.23
2017-12-22T16:53:08.743Z,335.90
2017-12-22T16:55:36.414Z,378.77
2017-12-22T16:58:04.090Z,439.87
2017-12-22T17:00:31.707Z,457.00
2017-12-22T17:02:59.387Z,437.27
2017-12-22T17:05:27.068Z,329.93
2017-12-22T17:07:54.680Z,274.40
2017-12-22T17:10:22.354Z,239.00
2017-12-22T17:12:49.966Z,247.07
2017-12-22T17:15:17.578Z,244.07
2017-12-22T17:17:45.194Z,248.57
2017-12-22T17:20:12.868Z,214.13
2017-12-22T17:22:40.539Z,229.73
2017-12-22T17:25:08.147Z,171.67
2017-12-22T17:27:35.752Z,184.83
2017-12-22T17:30:03.378Z,160.47
2017-12-22T17:32:30.986Z,185.33
2017-12-22T17:34:58.648Z,169.83
2017-12-22T17:37:26.255Z,167.40
2017-12-22T17:39:53.868Z,177.57
2017-12-22T17:42:21.483Z,181.83
2017-12-22T17:44:49.151Z,165.00
2017-12-22T17:47:16.867Z,193.00
2017-12-22T17:49:44.535Z,333.53
2017-12-22T17:52:12.142Z,230.70
2017-12-22T17:54:39.920Z,255.90
2017-12-22T17:57:07.533Z,238.10
2017-12-22T17:59:35.194Z,234.87
2017-12-22T18:02:02.807Z,220.97
2017-12-22T18:04:30.420Z,246.17
2017-12-22T18:06:58.130Z,244.00
2017-12-22T18:09:25.763Z,267.33
2017-12-22T18:11:53.446Z,281.70
2017-12-22T18:14:21.062Z,273.93
2017-12-22T18:16:48.740Z,290.10
2017-12-22T18:19:16.431Z,266.27
2017-12-22T18:21:44.047Z,269.43
2017-12-22T18:24:11.784Z,255.43
2017-12-22T18:26:39.391Z,205.37
2017-12-22T18:29:07.059Z,199.33
2017-12-22T18:31:34.742Z,183.60
2017-12-22T18:34:02.394Z,159.90
2017-12-22T18:36:30.147Z,146.73
2017-12-22T18:38:57.755Z,148.63
2017-12-22T18:41:25.362Z,142.90
2017-12-22T18:43:53.056Z,114.93
2017-12-22T18:46:20.727Z,114.97
2017-12-22T18:48:48.422Z,115.87
2017-12-22T18:51:16.030Z,117.23
2017-12-22T18:53:43.649Z,118.40
2017-12-22T18:56:11.332Z,102.93
2017-12-22T18:58:38.954Z,89.33
2017-12-22T19:01:06.654Z,92.63
2017-12-22T19:03:34.265Z,102.83
2017-12-22T19:06:01.880Z,122.00
2017-12-22T19:08:29.498Z,127.20
2017-12-22T19:10:57.167Z,118.57
2017-12-22T19:13:24.838Z,138.13
2017-12-22T19:15:52.447Z,134.70
2017-12-22T19:18:20.054Z,119.07
2017-12-22T19:20:47.675Z,191.70
2017-12-22T19:23:15.282Z,157.37
2017-12-22T19:25:42.943Z,161.57
2017-12-22T19:28:10.547Z,155.73
2017-12-22T19:30:38.154Z,134.13
2017-12-22T19:33:05.778Z,176.87
2017-12-22T19:35:33.442Z,151.23
2017-12-22T19:38:01.106Z,152.90
2017-12-22T19:40:28.714Z,151.97
2017-12-22T19:42:56.384Z,171.73
2017-12-22T19:45:24.004Z,184.07
2017-12-22T19:47:51.716Z,178.97
2017-12-22T19:50:19.435Z,190.77
2017-12-22T19:52:47.099Z,178.23
2017-12-22T19:55:14.707Z,147.80
2017-12-22T19:57:42.346Z,148.80
2017-12-22T20:00:09.966Z,150.87
2017-12-22T20:02:37.638Z,106.00
2017-12-22T20:05:05.308Z,102.67
2017-12-22T20:07:32.911Z,91.20
2017-12-22T20:10:00.591Z,105.70
2017-12-22T20:12:28.198Z,159.40
2017-12-22T20:14:55.915Z,141.53
2017-12-22T20:17:23.587Z,140.40
2017-12-22T20:19:52.118Z,139.13
2017-12-22T20:22:19.739Z,123.43
2017-12-22T20:24:47.406Z,118.37
2017-12-22T20:27:15.062Z,118.43
2017-12-22T20:29:42.667Z,138.63
2017-12-22T20:32:10.339Z,169.10
2017-12-22T20:34:37.954Z,204.50
2017-12-22T20:37:05.566Z,197.67
2017-12-22T20:39:33.296Z,207.33
2017-12-22T20:42:00.903Z,171.63
2017-12-22T20:44:28.575Z,147.33
2017-12-22T20:46:56.191Z,115.73
2017-12-22T20:49:23.806Z,119.50
2017-12-22T20:51:51.467Z,110.87
2017-12-22T20:54:19.135Z,126.17
2017-12-22T20:56:46.795Z,130.40
2017-12-22T20:59:14.410Z,129.63
2017-12-22T21:01:42.022Z,149.60
2017-12-22T21:04:09.675Z,149.43
2017-12-22T21:06:37.278Z,139.33
2017-12-22T21:09:04.944Z,111.80
2017-12-22T21:11:32.559Z,106.40
2017-12-22T21:14:00.162Z,98.07
2017-12-22T21:16:27.818Z,84.03
2017-12-22T21:18:55.423Z,102.67
2017-12-22T21:21:23.029Z,95.47
2017-12-22T21:23:50.650Z,74.50
2017-12-22T21:26:18.251Z,63.63
2017-12-22T21:28:45.902Z,59.87
2017-12-22T21:31:13.563Z,50.50
2017-12-22T21:33:41.226Z,52.17
2017-12-22T21:36:08.838Z,50.60
2017-12-22T21:38:36.448Z,54.47
2017-12-22T21:41:04.103Z,52.30
2017-12-22T21:43:31.714Z,68.83
2017-12-22T21:45:59.419Z,65.53
2017-12-22T21:48:27.105Z,56.93
2017-12-22T21:50:54.719Z,63.27
2017-12-22T21:53:22.451Z,61.10
2017-12-22T21:55:50.059Z,51.90
2017-12-22T21:58:17.678Z,55.13
2017-12-22T22:00:45.291Z,47.90
2017-12-22T22:03:12.903Z,53.07
2017-12-22T22:05:40.619Z,54.03
2017-12-22T22:08:08.276Z,43.40
2017-12-22T22:10:35.878Z,47.10
2017-12-22T22:13:03.548Z,47.87
2017-12-22T22:15:31.215Z,50.17
2017-12-22T22:17:58.882Z,44.10
2017-12-22T22:20:26.487Z,42.53
2017-12-22T22:22:54.143Z,49.50
2017-12-22T22:25:21.754Z,49.63
2017-12-22T22:27:49.358Z,37.57
2017-12-22T22:30:17.023Z,42.40
2017-12-22T22:32:44.688Z,46.20
2017-12-22T22:35:12.343Z,47.50
2017-12-22T22:37:39.954Z,39.50
2017-12-22T22:40:07.619Z,36.90
2017-12-22T22:42:35.359Z,33.40
2017-12-22T22:45:03.059Z,41.00
2017-12-22T22:47:30.667Z,47.60
2017-12-22T22:49:58.279Z,42.10
2017-12-22T22:52:25.878Z,44.83
2017-12-22T22:54:53.620Z,35.00
2017-12-22T22:57:21.279Z,39.57
2017-12-22T22:59:48.874Z,37.10
2017-12-22T23:02:16.571Z,58.33
2017-12-22T23:04:44.179Z,39.10
2017-12-22T23:07:11.834Z,35.00
2017-12-22T23:09:39.430Z,38.70
2017-12-22T23:12:07.026Z,35.80
2017-12-22T23:14:34.630Z,53.23
2017-12-22T23:17:02.226Z,67.43
2017-12-22T23:19:29.874Z,69.00
2017-12-22T23:21:57.470Z,68.03
2017-12-22T23:24:25.071Z,73.30
2017-12-22T23:26:52.738Z,84.63
2017-12-22T23:29:20.334Z,74.73
2017-12-22T23:31:54.714Z,69.27
2017-12-22T23:34:22.327Z,64.57
2017-12-22T23:36:49.995Z,70.90
2017-12-22T23:39:17.663Z,70.17
2017-12-22T23:41:45.266Z,70.30
2017-12-22T23:44:12.878Z,77.53
2017-12-22T23:46:40.498Z,77.00
2017-12-22T23:49:08.103Z,66.67
2017-12-22T23:51:35.780Z,68.60
2017-12-22T23:54:03.396Z,80.60
2017-12-22T23:56:31.067Z,96.90
2017-12-22T23:58:58.678Z,76.47
